sensor_id;sensor_type;location;lat;lon;timestamp;temperature;humidity
30234;DHT22;17046;52.074;4.748;2022-10-04T00:03:08;12.50;99.90
30234;DHT22;17046;52.074;4.748;2022-10-04T00:05:34;12.60;99.90
30234;DHT22;17046;52.074;4.748;2022-10-04T00:08:17;12.60;99.90
30234;DHT22;17046;52.074;4.748;2022-10-04T00:10:46;12.60;99.90
30234;DHT22;17046;52.074;4.748;2022-10-04T00:13:23;12.60;99.90
30234;DHT22;17046;52.074;4.748;2022-10-04T00:15:49;12.60;99.90
30234;DHT22;17046;52.074;4.748;2022-10-04T00:18:38;12.70;99.90
30234;DHT22;17046;52.074;4.748;2022-10-04T00:21:06;12.70;99.90
30234;DHT22;17046;52.074;4.748;2022-10-04T00:23:41;12.80;99.90
30234;DHT22;17046;52.074;4.748;2022-10-04T00:34:46;12.90;99.90
30234;DHT22;17046;52.074;4.748;2022-10-04T00:37:19;12.80;99.90
30234;DHT22;17046;52.074;4.748;2022-10-04T00:39:58;12.80;99.90
30234;DHT22;17046;52.074;4.748;2022-10-04T00:42:40;12.80;99.90
30234;DHT22;17046;52.074;4.748;2022-10-04T00:45:32;12.90;99.90
30234;DHT22;17046;52.074;4.748;2022-10-04T00:48:10;12.90;99.90
30234;DHT22;17046;52.074;4.748;2022-10-04T00:50:43;12.90;99.90
30234;DHT22;17046;52.074;4.748;2022-10-04T00:53:18;12.80;99.90
30234;DHT22;17046;52.074;4.748;2022-10-04T00:55:58;12.70;99.90
30234;DHT22;17046;52.074;4.748;2022-10-04T00:58:33;12.70;99.90
30234;DHT22;17046;52.074;4.748;2022-10-04T01:01:00;12.60;99.90
30234;DHT22;17046;52.074;4.748;2022-10-04T01:03:29;12.60;99.90
30234;DHT22;17046;52.074;4.748;2022-10-04T01:05:59;12.60;99.90
30234;DHT22;17046;52.074;4.748;2022-10-04T01:08:32;12.50;99.90
30234;DHT22;17046;52.074;4.748;2022-10-04T01:11:06;12.50;99.90
30234;DHT22;17046;52.074;4.748;2022-10-04T01:13:56;12.40;99.90
30234;DHT22;17046;52.074;4.748;2022-10-04T01:16:31;12.30;99.90
30234;DHT22;17046;52.074;4.748;2022-10-04T01:21:47;12.20;99.90
30234;DHT22;17046;52.074;4.748;2022-10-04T01:24:21;12.20;99.90
30234;DHT22;17046;52.074;4.748;2022-10-04T01:26:47;12.20;99.90
30234;DHT22;17046;52.074;4.748;2022-10-04T01:29:23;12.10;99.90
30234;DHT22;17046;52.074;4.748;2022-10-04T01:31:51;12.10;99.90
30234;DHT22;17046;52.074;4.748;2022-10-04T01:34:19;12.10;99.90
30234;DHT22;17046;52.074;4.748;2022-10-04T01:36:46;12.00;99.90
30234;DHT22;17046;52.074;4.748;2022-10-04T01:39:17;11.90;99.90
30234;DHT22;17046;52.074;4.748;2022-10-04T01:47:25;11.80;99.90
30234;DHT22;17046;52.074;4.748;2022-10-04T01:49:53;11.80;99.90
30234;DHT22;17046;52.074;4.748;2022-10-04T01:52:31;11.70;99.90
30234;DHT22;17046;52.074;4.748;2022-10-04T01:55:01;11.70;99.90
30234;DHT22;17046;52.074;4.748;2022-10-04T01:57:58;11.70;99.90
30234;DHT22;17046;52.074;4.748;2022-10-04T02:00:25;11.70;99.90
30234;DHT22;17046;52.074;4.748;2022-10-04T02:02:57;11.70;99.90
30234;DHT22;17046;52.074;4.748;2022-10-04T02:05:41;11.60;99.90
30234;DHT22;17046;52.074;4.748;2022-10-04T02:08:12;11.60;99.90
30234;DHT22;17046;52.074;4.748;2022-10-04T02:10:40;11.60;99.90
30234;DHT22;17046;52.074;4.748;2022-10-04T02:13:13;11.60;99.90
30234;DHT22;17046;52.074;4.748;2022-10-04T02:15:42;11.60;99.90
30234;DHT22;17046;52.074;4.748;2022-10-04T02:18:11;11.50;99.90
30234;DHT22;17046;52.074;4.748;2022-10-04T02:20:38;11.50;99.90
30234;DHT22;17046;52.074;4.748;2022-10-04T02:23:04;11.50;99.90
30234;DHT22;17046;52.074;4.748;2022-10-04T02:25:30;11.50;99.90
30234;DHT22;17046;52.074;4.748;2022-10-04T02:27:56;11.40;99.90
30234;DHT22;17046;52.074;4.748;2022-10-04T02:30:23;11.40;99.90
30234;DHT22;17046;52.074;4.748;2022-10-04T02:32:52;11.40;99.90
30234;DHT22;17046;52.074;4.748;2022-10-04T02:35:31;11.30;99.90
30234;DHT22;17046;52.074;4.748;2022-10-04T02:40:46;11.30;99.90
30234;DHT22;17046;52.074;4.748;2022-10-04T02:43:19;11.20;99.90
30234;DHT22;17046;52.074;4.748;2022-10-04T02:46:13;11.20;99.90
30234;DHT22;17046;52.074;4.748;2022-10-04T02:48:55;11.20;99.90
30234;DHT22;17046;52.074;4.748;2022-10-04T02:54:16;11.10;99.90
30234;DHT22;17046;52.074;4.748;2022-10-04T02:56:50;11.10;99.90
30234;DHT22;17046;52.074;4.748;2022-10-04T02:59:17;11.20;99.90
30234;DHT22;17046;52.074;4.748;2022-10-04T03:01:54;11.20;99.90
30234;DHT22;17046;52.074;4.748;2022-10-04T03:04:32;11.20;99.90
30234;DHT22;17046;52.074;4.748;2022-10-04T03:07:04;11.10;99.90
30234;DHT22;17046;52.074;4.748;2022-10-04T03:09:31;11.00;99.90
30234;DHT22;17046;52.074;4.748;2022-10-04T03:11:57;11.00;99.90
30234;DHT22;17046;52.074;4.748;2022-10-04T03:14:27;11.00;99.90
30234;DHT22;17046;52.074;4.748;2022-10-04T03:16:55;10.90;99.90
30234;DHT22;17046;52.074;4.748;2022-10-04T03:19:23;11.00;99.90
30234;DHT22;17046;52.074;4.748;2022-10-04T03:21:51;10.90;99.90
30234;DHT22;17046;52.074;4.748;2022-10-04T03:24:23;10.90;99.90
30234;DHT22;17046;52.074;4.748;2022-10-04T03:26:53;10.90;99.90
30234;DHT22;17046;52.074;4.748;2022-10-04T03:29:23;10.80;99.90
30234;DHT22;17046;52.074;4.748;2022-10-04T03:31:51;10.80;99.90
30234;DHT22;17046;52.074;4.748;2022-10-04T03:34:27;10.80;99.90
30234;DHT22;17046;52.074;4.748;2022-10-04T03:36:56;10.70;99.90
30234;DHT22;17046;52.074;4.748;2022-10-04T03:39:44;10.70;99.90
30234;DHT22;17046;52.074;4.748;2022-10-04T03:42:20;10.60;99.90
30234;DHT22;17046;52.074;4.748;2022-10-04T03:44:48;10.60;99.90
30234;DHT22;17046;52.074;4.748;2022-10-04T03:47:20;10.70;99.90
30234;DHT22;17046;52.074;4.748;2022-10-04T03:49:46;10.70;99.90
30234;DHT22;17046;52.074;4.748;2022-10-04T03:52:26;10.60;99.90
30234;DHT22;17046;52.074;4.748;2022-10-04T03:54:55;10.60;99.90
30234;DHT22;17046;52.074;4.748;2022-10-04T03:57:22;10.60;99.90
30234;DHT22;17046;52.074;4.748;2022-10-04T03:59:49;10.60;99.90
30234;DHT22;17046;52.074;4.748;2022-10-04T04:02:27;10.50;99.90
30234;DHT22;17046;52.074;4.748;2022-10-04T04:10:30;10.40;99.90
30234;DHT22;17046;52.074;4.748;2022-10-04T04:13:03;10.30;99.90
30234;DHT22;17046;52.074;4.748;2022-10-04T04:15:32;10.40;99.90
30234;DHT22;17046;52.074;4.748;2022-10-04T04:18:01;10.30;99.90
30234;DHT22;17046;52.074;4.748;2022-10-04T04:20:31;10.20;99.90
30234;DHT22;17046;52.074;4.748;2022-10-04T04:23:04;10.10;99.90
30234;DHT22;17046;52.074;4.748;2022-10-04T04:25:33;10.00;99.90
30234;DHT22;17046;52.074;4.748;2022-10-04T04:28:11;10.10;99.90
30234;DHT22;17046;52.074;4.748;2022-10-04T04:30:43;10.00;99.90
30234;DHT22;17046;52.074;4.748;2022-10-04T04:33:20;10.00;99.90
30234;DHT22;17046;52.074;4.748;2022-10-04T04:35:53;10.00;99.90
30234;DHT22;17046;52.074;4.748;2022-10-04T04:38:24;10.00;99.90
30234;DHT22;17046;52.074;4.748;2022-10-04T04:40:50;9.90;99.90
30234;DHT22;17046;52.074;4.748;2022-10-04T04:43:20;10.00;99.90
30234;DHT22;17046;52.074;4.748;2022-10-04T04:45:49;10.10;99.90
30234;DHT22;17046;52.074;4.748;2022-10-04T04:48:17;10.10;99.90
30234;DHT22;17046;52.074;4.748;2022-10-04T04:50:48;10.20;99.90
30234;DHT22;17046;52.074;4.748;2022-10-04T04:53:27;10.20;99.90
30234;DHT22;17046;52.074;4.748;2022-10-04T04:56:03;10.30;99.90
30234;DHT22;17046;52.074;4.748;2022-10-04T04:58:40;10.30;99.90
30234;DHT22;17046;52.074;4.748;2022-10-04T05:04:16;10.30;99.90
30234;DHT22;17046;52.074;4.748;2022-10-04T05:06:45;10.30;99.90
30234;DHT22;17046;52.074;4.748;2022-10-04T05:09:22;10.30;99.90
30234;DHT22;17046;52.074;4.748;2022-10-04T05:11:50;10.30;99.90
30234;DHT22;17046;52.074;4.748;2022-10-04T05:14:17;10.30;99.90
30234;DHT22;17046;52.074;4.748;2022-10-04T05:16:54;10.30;99.90
30234;DHT22;17046;52.074;4.748;2022-10-04T05:19:32;10.30;99.90
30234;DHT22;17046;52.074;4.748;2022-10-04T05:22:02;10.30;99.90
30234;DHT22;17046;52.074;4.748;2022-10-04T05:24:37;10.20;99.90
30234;DHT22;17046;52.074;4.748;2022-10-04T05:27:07;10.20;99.90
30234;DHT22;17046;52.074;4.748;2022-10-04T05:29:39;10.20;99.90
30234;DHT22;17046;52.074;4.748;2022-10-04T05:35:00;10.10;99.90
30234;DHT22;17046;52.074;4.748;2022-10-04T05:42:51;10.20;99.90
30234;DHT22;17046;52.074;4.748;2022-10-04T05:45:23;10.20;99.90
30234;DHT22;17046;52.074;4.748;2022-10-04T05:47:52;10.20;99.90
30234;DHT22;17046;52.074;4.748;2022-10-04T05:52:50;10.20;99.90
30234;DHT22;17046;52.074;4.748;2022-10-04T05:58:08;10.10;99.90
30234;DHT22;17046;52.074;4.748;2022-10-04T06:06:35;10.00;99.90
30234;DHT22;17046;52.074;4.748;2022-10-04T06:17:43;10.00;99.90
30234;DHT22;17046;52.074;4.748;2022-10-04T06:23:01;10.00;99.90
30234;DHT22;17046;52.074;4.748;2022-10-04T06:25:43;10.00;99.90
30234;DHT22;17046;52.074;4.748;2022-10-04T06:37:17;10.10;99.90
30234;DHT22;17046;52.074;4.748;2022-10-04T06:56:49;10.50;99.90
30234;DHT22;17046;52.074;4.748;2022-10-04T07:01:54;10.60;99.90
30234;DHT22;17046;52.074;4.748;2022-10-04T07:04:28;10.70;99.90
30234;DHT22;17046;52.074;4.748;2022-10-04T07:07:32;10.90;99.90
30234;DHT22;17046;52.074;4.748;2022-10-04T07:10:20;11.00;99.90
30234;DHT22;17046;52.074;4.748;2022-10-04T07:13:15;11.20;99.90
30234;DHT22;17046;52.074;4.748;2022-10-04T07:18:57;11.60;99.90
30234;DHT22;17046;52.074;4.748;2022-10-04T07:21:26;11.60;99.90
30234;DHT22;17046;52.074;4.748;2022-10-04T07:23:59;11.70;99.90
30234;DHT22;17046;52.074;4.748;2022-10-04T07:26:42;11.90;99.90
30234;DHT22;17046;52.074;4.748;2022-10-04T07:29:19;11.90;99.90
30234;DHT22;17046;52.074;4.748;2022-10-04T07:32:27;11.90;99.90
30234;DHT22;17046;52.074;4.748;2022-10-04T07:38:15;12.10;99.90
30234;DHT22;17046;52.074;4.748;2022-10-04T07:43:27;12.10;99.90
30234;DHT22;17046;52.074;4.748;2022-10-04T07:46:02;12.20;99.90
30234;DHT22;17046;52.074;4.748;2022-10-04T07:48:29;12.20;99.90
30234;DHT22;17046;52.074;4.748;2022-10-04T07:51:05;12.20;99.90
30234;DHT22;17046;52.074;4.748;2022-10-04T07:56:25;12.40;99.90
30234;DHT22;17046;52.074;4.748;2022-10-04T08:01:56;12.80;99.90
30234;DHT22;17046;52.074;4.748;2022-10-04T08:07:32;13.10;99.90
30234;DHT22;17046;52.074;4.748;2022-10-04T08:10:28;13.20;99.90
30234;DHT22;17046;52.074;4.748;2022-10-04T08:15:58;13.30;99.90
30234;DHT22;17046;52.074;4.748;2022-10-04T08:21:07;13.50;98.90
30234;DHT22;17046;52.074;4.748;2022-10-04T08:26:25;13.40;98.60
30234;DHT22;17046;52.074;4.748;2022-10-04T09:01:02;14.40;32.60
30234;DHT22;17046;52.074;4.748;2022-10-04T09:20:53;14.70;1.00
30234;DHT22;17046;52.074;4.748;2022-10-04T09:26:23;14.80;1.00
30234;DHT22;17046;52.074;4.748;2022-10-04T09:38:04;15.00;1.00
30234;DHT22;17046;52.074;4.748;2022-10-04T09:40:49;15.00;1.00
30234;DHT22;17046;52.074;4.748;2022-10-04T09:43:41;15.10;1.00
30234;DHT22;17046;52.074;4.748;2022-10-04T09:46:26;15.10;1.00
30234;DHT22;17046;52.074;4.748;2022-10-04T09:57:32;15.60;1.00
30234;DHT22;17046;52.074;4.748;2022-10-04T10:00:14;15.60;1.00
30234;DHT22;17046;52.074;4.748;2022-10-04T10:08:39;15.60;1.00
30234;DHT22;17046;52.074;4.748;2022-10-04T10:11:30;15.70;1.00
30234;DHT22;17046;52.074;4.748;2022-10-04T10:20:53;16.10;1.00
30234;DHT22;17046;52.074;4.748;2022-10-04T10:23:24;16.20;1.00
30234;DHT22;17046;52.074;4.748;2022-10-04T10:40:34;16.60;99.90
30234;DHT22;17046;52.074;4.748;2022-10-04T10:48:53;16.60;99.90
30234;DHT22;17046;52.074;4.748;2022-10-04T10:59:41;16.70;99.90
30234;DHT22;17046;52.074;4.748;2022-10-04T11:05:14;16.90;99.90
30234;DHT22;17046;52.074;4.748;2022-10-04T11:19:24;17.90;99.90
30234;DHT22;17046;52.074;4.748;2022-10-04T11:22:09;17.50;99.90
30234;DHT22;17046;52.074;4.748;2022-10-04T11:33:18;17.90;1.00
30234;DHT22;17046;52.074;4.748;2022-10-04T11:38:56;18.10;1.00
30234;DHT22;17046;52.074;4.748;2022-10-04T11:52:49;18.00;1.00
30234;DHT22;17046;52.074;4.748;2022-10-04T12:01:16;17.70;1.00
30234;DHT22;17046;52.074;4.748;2022-10-04T12:07:18;17.90;1.00
30234;DHT22;17046;52.074;4.748;2022-10-04T12:21:41;17.70;99.90
30234;DHT22;17046;52.074;4.748;2022-10-04T12:27:35;17.70;99.90
30234;DHT22;17046;52.074;4.748;2022-10-04T12:30:31;17.70;99.90
30234;DHT22;17046;52.074;4.748;2022-10-04T12:44:11;17.70;99.90
30234;DHT22;17046;52.074;4.748;2022-10-04T12:52:23;17.70;99.90
30234;DHT22;17046;52.074;4.748;2022-10-04T12:54:55;17.70;65.30
30234;DHT22;17046;52.074;4.748;2022-10-04T13:13:51;17.80;1.00
30234;DHT22;17046;52.074;4.748;2022-10-04T13:16:52;17.70;1.00
30234;DHT22;17046;52.074;4.748;2022-10-04T13:22:18;18.00;76.70
30234;DHT22;17046;52.074;4.748;2022-10-04T13:27:47;18.10;54.80
30234;DHT22;17046;52.074;4.748;2022-10-04T13:30:21;18.10;34.20
30234;DHT22;17046;52.074;4.748;2022-10-04T13:33:03;18.10;51.90
30234;DHT22;17046;52.074;4.748;2022-10-04T13:55:26;18.60;99.90
30234;DHT22;17046;52.074;4.748;2022-10-04T14:03:57;18.60;99.90
30234;DHT22;17046;52.074;4.748;2022-10-04T14:12:18;18.70;99.90
30234;DHT22;17046;52.074;4.748;2022-10-04T14:20:50;18.40;99.90
30234;DHT22;17046;52.074;4.748;2022-10-04T14:29:09;18.60;99.90
30234;DHT22;17046;52.074;4.748;2022-10-04T14:35:01;18.70;99.90
30234;DHT22;17046;52.074;4.748;2022-10-04T14:43:34;18.80;99.90
30234;DHT22;17046;52.074;4.748;2022-10-04T14:51:38;18.40;99.90
30234;DHT22;17046;52.074;4.748;2022-10-04T14:54:35;18.40;99.90
30234;DHT22;17046;52.074;4.748;2022-10-04T15:05:29;18.10;99.90
30234;DHT22;17046;52.074;4.748;2022-10-04T15:10:48;18.10;99.90
30234;DHT22;17046;52.074;4.748;2022-10-04T15:13:34;18.00;1.00
30234;DHT22;17046;52.074;4.748;2022-10-04T15:16:15;18.10;99.90
30234;DHT22;17046;52.074;4.748;2022-10-04T15:19:09;18.00;1.00
30234;DHT22;17046;52.074;4.748;2022-10-04T15:22:26;18.10;99.90
30234;DHT22;17046;52.074;4.748;2022-10-04T15:41:05;18.20;1.00
30234;DHT22;17046;52.074;4.748;2022-10-04T16:00:24;18.00;1.00
30234;DHT22;17046;52.074;4.748;2022-10-04T16:06:08;17.90;1.00
30234;DHT22;17046;52.074;4.748;2022-10-04T16:14:28;17.90;1.00
30234;DHT22;17046;52.074;4.748;2022-10-04T16:17:17;17.80;1.00
30234;DHT22;17046;52.074;4.748;2022-10-04T16:25:50;17.60;1.00
30234;DHT22;17046;52.074;4.748;2022-10-04T16:33:53;17.50;1.00
30234;DHT22;17046;52.074;4.748;2022-10-04T16:36:27;17.40;1.00
30234;DHT22;17046;52.074;4.748;2022-10-04T16:38:58;17.40;1.00
30234;DHT22;17046;52.074;4.748;2022-10-04T16:41:58;17.40;1.00
30234;DHT22;17046;52.074;4.748;2022-10-04T16:44:37;17.40;1.00
30234;DHT22;17046;52.074;4.748;2022-10-04T16:47:36;17.40;1.00
30234;DHT22;17046;52.074;4.748;2022-10-04T16:50:09;17.30;1.00
30234;DHT22;17046;52.074;4.748;2022-10-04T16:52:48;17.30;1.00
30234;DHT22;17046;52.074;4.748;2022-10-04T16:55:43;17.30;1.00
30234;DHT22;17046;52.074;4.748;2022-10-04T17:06:27;17.30;1.00
30234;DHT22;17046;52.074;4.748;2022-10-04T17:09:17;17.20;1.00
30234;DHT22;17046;52.074;4.748;2022-10-04T17:17:21;17.20;1.00
30234;DHT22;17046;52.074;4.748;2022-10-04T17:19:53;17.20;1.00
30234;DHT22;17046;52.074;4.748;2022-10-04T17:22:48;17.20;1.00
30234;DHT22;17046;52.074;4.748;2022-10-04T17:25:35;17.20;1.00
30234;DHT22;17046;52.074;4.748;2022-10-04T17:28:32;17.20;1.00
30234;DHT22;17046;52.074;4.748;2022-10-04T17:31:12;17.20;1.00
30234;DHT22;17046;52.074;4.748;2022-10-04T17:34:18;17.20;1.00
30234;DHT22;17046;52.074;4.748;2022-10-04T17:37:45;17.20;1.00
30234;DHT22;17046;52.074;4.748;2022-10-04T17:48:23;17.20;1.00
30234;DHT22;17046;52.074;4.748;2022-10-04T17:54:27;17.10;1.00
30234;DHT22;17046;52.074;4.748;2022-10-04T17:57:37;17.10;1.00
30234;DHT22;17046;52.074;4.748;2022-10-04T18:00:09;17.10;1.00
30234;DHT22;17046;52.074;4.748;2022-10-04T18:05:45;17.10;1.00
30234;DHT22;17046;52.074;4.748;2022-10-04T18:11:05;17.10;1.00
30234;DHT22;17046;52.074;4.748;2022-10-04T18:13:53;17.10;1.00
30234;DHT22;17046;52.074;4.748;2022-10-04T18:18:53;17.00;1.80
30234;DHT22;17046;52.074;4.748;2022-10-04T18:21:27;17.00;1.60
30234;DHT22;17046;52.074;4.748;2022-10-04T18:24:18;17.00;1.00
30234;DHT22;17046;52.074;4.748;2022-10-04T18:26:59;17.00;4.50
30234;DHT22;17046;52.074;4.748;2022-10-04T18:29:36;17.00;11.80
30234;DHT22;17046;52.074;4.748;2022-10-04T18:34:54;17.00;5.50
30234;DHT22;17046;52.074;4.748;2022-10-04T18:37:34;17.00;1.70
30234;DHT22;17046;52.074;4.748;2022-10-04T18:40:13;17.00;1.00
30234;DHT22;17046;52.074;4.748;2022-10-04T18:42:42;17.00;1.00
30234;DHT22;17046;52.074;4.748;2022-10-04T18:45:26;17.00;1.00
30234;DHT22;17046;52.074;4.748;2022-10-04T18:47:53;17.00;1.00
30234;DHT22;17046;52.074;4.748;2022-10-04T18:53:28;17.00;1.00
30234;DHT22;17046;52.074;4.748;2022-10-04T18:55:59;17.10;1.00
30234;DHT22;17046;52.074;4.748;2022-10-04T19:01:45;17.00;1.00
30234;DHT22;17046;52.074;4.748;2022-10-04T19:08:07;17.00;1.00
30234;DHT22;17046;52.074;4.748;2022-10-04T19:16:10;16.90;21.80
30234;DHT22;17046;52.074;4.748;2022-10-04T19:18:54;16.80;28.90
30234;DHT22;17046;52.074;4.748;2022-10-04T19:26:39;16.90;3.60
30234;DHT22;17046;52.074;4.748;2022-10-04T19:32:04;16.80;7.80
30234;DHT22;17046;52.074;4.748;2022-10-04T19:37:30;16.80;3.70
30234;DHT22;17046;52.074;4.748;2022-10-04T19:43:02;16.80;12.70
30234;DHT22;17046;52.074;4.748;2022-10-04T19:45:45;16.80;16.80
30234;DHT22;17046;52.074;4.748;2022-10-04T19:48:20;16.80;15.70
30234;DHT22;17046;52.074;4.748;2022-10-04T19:50:54;16.80;5.50
30234;DHT22;17046;52.074;4.748;2022-10-04T19:53:28;16.80;1.70
30234;DHT22;17046;52.074;4.748;2022-10-04T19:55:57;16.80;9.00
30234;DHT22;17046;52.074;4.748;2022-10-04T20:00:54;16.80;12.70
30234;DHT22;17046;52.074;4.748;2022-10-04T20:03:19;16.80;12.40
30234;DHT22;17046;52.074;4.748;2022-10-04T20:05:50;16.70;19.70
30234;DHT22;17046;52.074;4.748;2022-10-04T20:08:47;16.70;27.70
30234;DHT22;17046;52.074;4.748;2022-10-04T20:11:27;16.70;26.90
30234;DHT22;17046;52.074;4.748;2022-10-04T20:21:43;16.60;1.00
30234;DHT22;17046;52.074;4.748;2022-10-04T20:27:01;16.70;1.00
30234;DHT22;17046;52.074;4.748;2022-10-04T20:32:06;16.70;1.00
30234;DHT22;17046;52.074;4.748;2022-10-04T20:34:55;16.70;1.00
30234;DHT22;17046;52.074;4.748;2022-10-04T20:37:20;16.70;1.00
30234;DHT22;17046;52.074;4.748;2022-10-04T20:42:29;16.70;1.00
30234;DHT22;17046;52.074;4.748;2022-10-04T20:47:42;16.60;1.00
30234;DHT22;17046;52.074;4.748;2022-10-04T20:50:20;16.60;1.00
30234;DHT22;17046;52.074;4.748;2022-10-04T20:52:51;16.60;1.00
30234;DHT22;17046;52.074;4.748;2022-10-04T20:55:35;16.60;1.00
30234;DHT22;17046;52.074;4.748;2022-10-04T20:58:03;16.50;1.00
30234;DHT22;17046;52.074;4.748;2022-10-04T21:00:51;16.50;1.00
30234;DHT22;17046;52.074;4.748;2022-10-04T21:03:17;16.60;1.00
30234;DHT22;17046;52.074;4.748;2022-10-04T21:05:44;16.50;1.00
30234;DHT22;17046;52.074;4.748;2022-10-04T21:08:11;16.50;1.00
30234;DHT22;17046;52.074;4.748;2022-10-04T21:10:37;16.50;1.00
30234;DHT22;17046;52.074;4.748;2022-10-04T21:13:03;16.50;1.00
30234;DHT22;17046;52.074;4.748;2022-10-04T21:15:28;16.50;1.00
30234;DHT22;17046;52.074;4.748;2022-10-04T21:18:05;16.40;1.00
30234;DHT22;17046;52.074;4.748;2022-10-04T21:20:51;16.40;1.00
30234;DHT22;17046;52.074;4.748;2022-10-04T21:23:30;16.40;1.00
30234;DHT22;17046;52.074;4.748;2022-10-04T21:26:17;16.40;1.00
30234;DHT22;17046;52.074;4.748;2022-10-04T21:28:43;16.40;1.00
30234;DHT22;17046;52.074;4.748;2022-10-04T21:31:08;16.40;1.00
30234;DHT22;17046;52.074;4.748;2022-10-04T21:33:34;16.40;1.00
30234;DHT22;17046;52.074;4.748;2022-10-04T21:36:01;16.40;1.00
30234;DHT22;17046;52.074;4.748;2022-10-04T21:38:27;16.40;1.00
30234;DHT22;17046;52.074;4.748;2022-10-04T21:40:54;16.40;1.00
30234;DHT22;17046;52.074;4.748;2022-10-04T21:43:20;16.40;1.00
30234;DHT22;17046;52.074;4.748;2022-10-04T21:45:46;16.40;1.00
30234;DHT22;17046;52.074;4.748;2022-10-04T21:48:12;16.40;1.00
30234;DHT22;17046;52.074;4.748;2022-10-04T21:50:37;16.40;1.00
30234;DHT22;17046;52.074;4.748;2022-10-04T21:53:03;16.40;1.00
30234;DHT22;17046;52.074;4.748;2022-10-04T21:55:28;16.40;1.00
30234;DHT22;17046;52.074;4.748;2022-10-04T21:57:54;16.40;1.00
30234;DHT22;17046;52.074;4.748;2022-10-04T22:00:20;16.40;1.00
30234;DHT22;17046;52.074;4.748;2022-10-04T22:02:45;16.40;1.00
30234;DHT22;17046;52.074;4.748;2022-10-04T22:05:11;16.30;1.00
30234;DHT22;17046;52.074;4.748;2022-10-04T22:07:37;16.40;1.00
30234;DHT22;17046;52.074;4.748;2022-10-04T22:10:03;16.30;1.00
30234;DHT22;17046;52.074;4.748;2022-10-04T22:12:28;16.30;1.00
30234;DHT22;17046;52.074;4.748;2022-10-04T22:14:54;16.20;1.00
30234;DHT22;17046;52.074;4.748;2022-10-04T22:17:20;16.20;1.00
30234;DHT22;17046;52.074;4.748;2022-10-04T22:19:45;16.20;1.00
30234;DHT22;17046;52.074;4.748;2022-10-04T22:22:15;16.20;1.00
30234;DHT22;17046;52.074;4.748;2022-10-04T22:24:41;16.20;15.40
30234;DHT22;17046;52.074;4.748;2022-10-04T22:27:14;16.30;22.80
30234;DHT22;17046;52.074;4.748;2022-10-04T22:29:40;16.10;34.00
30234;DHT22;17046;52.074;4.748;2022-10-04T22:32:22;16.20;46.30
30234;DHT22;17046;52.074;4.748;2022-10-04T22:34:49;16.20;54.60
30234;DHT22;17046;52.074;4.748;2022-10-04T22:37:22;16.10;64.40
30234;DHT22;17046;52.074;4.748;2022-10-04T22:39:52;16.10;71.70
30234;DHT22;17046;52.074;4.748;2022-10-04T22:42:18;16.10;73.10
30234;DHT22;17046;52.074;4.748;2022-10-04T22:44:45;16.10;76.70
30234;DHT22;17046;52.074;4.748;2022-10-04T22:47:12;16.00;78.00
30234;DHT22;17046;52.074;4.748;2022-10-04T22:49:42;16.10;78.60
30234;DHT22;17046;52.074;4.748;2022-10-04T22:52:19;16.00;77.30
30234;DHT22;17046;52.074;4.748;2022-10-04T22:54:48;16.00;73.60
30234;DHT22;17046;52.074;4.748;2022-10-04T22:57:15;16.00;75.70
30234;DHT22;17046;52.074;4.748;2022-10-04T22:59:47;16.00;70.60
30234;DHT22;17046;52.074;4.748;2022-10-04T23:02:20;15.90;70.50
30234;DHT22;17046;52.074;4.748;2022-10-04T23:04:53;16.00;60.50
30234;DHT22;17046;52.074;4.748;2022-10-04T23:07:20;16.00;60.20
30234;DHT22;17046;52.074;4.748;2022-10-04T23:09:45;16.00;57.90
30234;DHT22;17046;52.074;4.748;2022-10-04T23:12:11;16.00;53.10
30234;DHT22;17046;52.074;4.748;2022-10-04T23:14:38;16.00;42.90
30234;DHT22;17046;52.074;4.748;2022-10-04T23:17:23;16.00;42.20
30234;DHT22;17046;52.074;4.748;2022-10-04T23:19:57;16.00;28.20
30234;DHT22;17046;52.074;4.748;2022-10-04T23:22:27;16.10;27.50
30234;DHT22;17046;52.074;4.748;2022-10-04T23:24:53;16.00;26.00
30234;DHT22;17046;52.074;4.748;2022-10-04T23:27:19;16.10;21.50
30234;DHT22;17046;52.074;4.748;2022-10-04T23:29:45;16.00;22.50
30234;DHT22;17046;52.074;4.748;2022-10-04T23:32:13;16.10;21.20
30234;DHT22;17046;52.074;4.748;2022-10-04T23:34:43;16.10;15.70
30234;DHT22;17046;52.074;4.748;2022-10-04T23:37:20;16.00;13.20
30234;DHT22;17046;52.074;4.748;2022-10-04T23:39:47;16.00;12.90
30234;DHT22;17046;52.074;4.748;2022-10-04T23:42:20;16.00;15.10
30234;DHT22;17046;52.074;4.748;2022-10-04T23:44:53;16.00;6.00
30234;DHT22;17046;52.074;4.748;2022-10-04T23:47:20;16.00;4.50
30234;DHT22;17046;52.074;4.748;2022-10-04T23:49:51;16.00;4.20
30234;DHT22;17046;52.074;4.748;2022-10-04T23:52:23;16.00;1.00
30234;DHT22;17046;52.074;4.748;2022-10-04T23:54:50;16.00;1.00
30234;DHT22;17046;52.074;4.748;2022-10-04T23:57:27;16.00;1.00
30234;DHT22;17046;52.074;4.748;2022-10-04T23:59:53;16.00;1.00
